Archival Weather

Salzburg

Salzburg, Austria (LOWS)

Report from: Friday, May 26, 2023 7:50 AM CEST
Current time: Wednesday, May 29, 2024 10:12 AM CEST

Current weather – Weather history – Daily summaries
Weather forecast

Temperature15.0°C (59.0°F)
Dew point13.0°C (55.4°F)
Winds 1 kts (0.5 m/s, 1.2 mph) Vrb
Winds variableWinds variable
Visibility6.2 mi. (10 km)
Clouds Few clouds 6,000 ft. (1,829 m)
Altimeter30.21 in.Hg (1023 mB)
Relative humidity88 %
Density altitude-120 ft. (-37 m)
Remarks Fully automated report
No significant changes expected in the next two hours
Flight conditions Visual Meteorological Conditions
Raw dataLOWS 260550Z AUTO VRB01KT 9999 FEW060 15/13 Q1023 NOSIG
An error has occurred. This application may no longer respond until reloaded. Reload 🗙